Etna, Ohio
Current Conditions -  °F | °C
As of 3:51 PM on Saturday 25 Oct 2014 (Local Time) from KCMH Reporting Station
Clear Clear  
Wind Chill: 72°   Ceiling: Unl
Heat Index: 72°   Visibility: 10mi
Dew Point: 53°   Wind: 16mph
Humidity: 51%   Direction: 270°W
Pressure: 29.84"   Gusts: NA
Location:  39.96°N, 82.68°W
Report Text: KCMH 251951Z 27014KT 10SM CLR 22/12 A2984 RMK AO2 SLP104 T02220117
Loading
Personal Weather Stations






























Interactive Weather Map
Tropical Storm Tracking
New forecast layout! Learn more

10-Day Weather Forecast

Advertisements
Track Severe Weather on mobile